createdAt,value
2018-08-18T00:00:01.681Z,18.30
2018-08-18T00:02:34.992Z,18.30
2018-08-18T00:05:03.627Z,18.30
2018-08-18T00:07:32.601Z,18.30
2018-08-18T00:10:01.219Z,18.20
2018-08-18T00:12:29.983Z,18.20
2018-08-18T00:14:59.026Z,18.20
2018-08-18T00:17:27.787Z,18.20
2018-08-18T00:19:56.524Z,18.10
2018-08-18T00:22:25.128Z,18.10
2018-08-18T00:24:58.732Z,18.10
2018-08-18T00:27:27.687Z,18.00
2018-08-18T00:30:01.538Z,17.90
2018-08-18T00:32:30.657Z,17.90
2018-08-18T00:34:59.677Z,17.80
2018-08-18T00:37:28.193Z,17.80
2018-08-18T00:39:57.240Z,17.80
2018-08-18T00:42:25.970Z,17.80
2018-08-18T00:44:54.670Z,17.80
2018-08-18T00:47:23.236Z,17.80
2018-08-18T00:49:51.744Z,17.80
2018-08-18T00:52:20.247Z,17.80
2018-08-18T00:54:48.734Z,17.80
2018-08-18T00:57:30.608Z,17.80
2018-08-18T00:59:59.344Z,17.80
2018-08-18T01:02:28.454Z,17.70
2018-08-18T01:05:01.251Z,17.70
2018-08-18T01:07:30.994Z,17.70
2018-08-18T01:09:59.978Z,17.70
2018-08-18T01:12:29.167Z,17.70
2018-08-18T01:14:58.502Z,17.70
2018-08-18T01:17:27.023Z,17.70
2018-08-18T01:19:57.962Z,17.70
2018-08-18T01:22:26.648Z,17.60
2018-08-18T01:24:55.344Z,17.60
2018-08-18T01:27:23.936Z,17.60
2018-08-18T01:29:57.745Z,17.60
2018-08-18T01:32:26.294Z,17.60
2018-08-18T01:34:55.040Z,17.60
2018-08-18T01:37:23.642Z,17.60
2018-08-18T01:39:54.370Z,17.60
2018-08-18T01:42:23.434Z,17.60
2018-08-18T01:44:54.367Z,17.60
2018-08-18T01:47:22.974Z,17.60
2018-08-18T01:49:51.823Z,17.60
2018-08-18T01:52:20.647Z,17.50
2018-08-18T01:54:49.290Z,17.50
2018-08-18T01:57:19.471Z,17.50
2018-08-18T01:59:48.279Z,17.50
2018-08-18T02:02:22.843Z,17.50
2018-08-18T02:04:51.795Z,17.50
2018-08-18T02:07:27.042Z,17.40
2018-08-18T02:09:56.361Z,17.50
2018-08-18T02:12:25.435Z,17.40
2018-08-18T02:14:54.486Z,17.40
2018-08-18T02:17:26.995Z,17.40
2018-08-18T02:19:55.967Z,17.40
2018-08-18T02:22:25.384Z,17.50
2018-08-18T02:24:54.193Z,17.50
2018-08-18T02:27:22.901Z,17.50
2018-08-18T02:30:03.413Z,17.40
2018-08-18T02:32:33.786Z,17.40
2018-08-18T02:35:02.294Z,17.40
2018-08-18T02:37:31.651Z,17.30
2018-08-18T02:40:00.258Z,17.40
2018-08-18T02:42:28.811Z,17.30
2018-08-18T02:44:57.368Z,17.30
2018-08-18T02:47:25.879Z,17.30
2018-08-18T02:49:55.523Z,17.40
2018-08-18T02:52:27.106Z,17.40
2018-08-18T02:54:57.600Z,17.30
2018-08-18T02:57:30.637Z,17.30
2018-08-18T03:00:01.793Z,17.30
2018-08-18T03:02:30.338Z,17.40
2018-08-18T03:04:58.903Z,17.40
2018-08-18T03:07:36.144Z,17.40
2018-08-18T03:10:10.789Z,17.40
2018-08-18T03:12:45.796Z,17.40
2018-08-18T03:15:32.841Z,17.30
2018-08-18T03:18:01.370Z,17.20
2018-08-18T03:20:29.901Z,17.10
2018-08-18T03:22:58.465Z,17.10
2018-08-18T03:25:38.200Z,17.10
2018-08-18T03:28:06.953Z,17.00
2018-08-18T03:30:35.571Z,17.00
2018-08-18T03:33:04.185Z,16.90
2018-08-18T03:35:33.432Z,16.90
2018-08-18T03:38:02.635Z,16.80
2018-08-18T03:40:32.067Z,16.80
2018-08-18T03:43:01.282Z,16.80
2018-08-18T03:45:29.875Z,16.80
2018-08-18T03:47:58.478Z,16.90
2018-08-18T03:50:41.158Z,16.90
2018-08-18T03:53:09.706Z,16.80
2018-08-18T03:55:38.625Z,16.80
2018-08-18T03:58:09.092Z,16.70
2018-08-18T04:00:38.213Z,16.70
2018-08-18T04:03:06.979Z,16.70
2018-08-18T04:05:36.016Z,16.70
2018-08-18T04:08:05.513Z,16.70
2018-08-18T04:10:34.125Z,16.60
2018-08-18T04:13:03.439Z,16.60
2018-08-18T04:15:32.151Z,16.60
2018-08-18T04:18:05.261Z,16.60
2018-08-18T04:20:33.846Z,16.60
2018-08-18T04:23:02.535Z,16.50
2018-08-18T04:25:31.123Z,16.50
2018-08-18T04:28:00.192Z,16.50
2018-08-18T04:30:29.313Z,16.50
2018-08-18T04:33:01.904Z,16.50
2018-08-18T04:35:32.192Z,16.50
2018-08-18T04:38:03.995Z,16.50
2018-08-18T04:40:34.451Z,16.50
2018-08-18T04:43:03.148Z,16.50
2018-08-18T04:45:32.717Z,16.40
2018-08-18T04:48:01.315Z,16.40
2018-08-18T04:50:31.303Z,16.50
2018-08-18T04:53:00.028Z,16.50
2018-08-18T04:55:29.593Z,16.50
2018-08-18T04:57:58.194Z,16.50
2018-08-18T05:00:28.693Z,16.50
2018-08-18T05:02:59.718Z,16.50
2018-08-18T05:05:30.676Z,16.50
2018-08-18T05:08:00.815Z,16.40
2018-08-18T05:10:29.826Z,16.50
2018-08-18T05:12:59.537Z,16.50
2018-08-18T05:15:28.673Z,16.50
2018-08-18T05:17:57.904Z,16.40
2018-08-18T05:20:28.678Z,16.40
2018-08-18T05:23:15.743Z,16.40
2018-08-18T05:25:46.605Z,16.40
2018-08-18T05:28:18.537Z,16.30
2018-08-18T05:30:54.248Z,16.30
2018-08-18T05:33:31.196Z,16.30
2018-08-18T05:36:05.228Z,16.30
2018-08-18T05:38:36.859Z,16.30
2018-08-18T05:41:08.629Z,16.30
2018-08-18T05:43:40.860Z,16.30
2018-08-18T05:46:11.188Z,16.30
2018-08-18T05:48:42.250Z,16.20
2018-08-18T05:51:13.271Z,16.20
2018-08-18T05:53:44.569Z,16.20
2018-08-18T05:56:15.697Z,16.20
2018-08-18T05:58:54.366Z,16.30
2018-08-18T06:01:34.886Z,16.30
2018-08-18T06:04:09.834Z,16.40
2018-08-18T06:06:40.441Z,16.40
2018-08-18T06:09:13.796Z,16.50
2018-08-18T06:11:45.086Z,16.50
2018-08-18T06:14:19.190Z,16.60
2018-08-18T06:16:50.999Z,16.70
2018-08-18T06:19:21.033Z,16.70
2018-08-18T06:21:50.212Z,16.80
2018-08-18T06:24:18.807Z,16.90
2018-08-18T06:26:47.728Z,17.00
2018-08-18T06:29:16.837Z,17.00
2018-08-18T06:31:58.197Z,17.10
2018-08-18T06:34:28.399Z,17.20
2018-08-18T06:36:57.555Z,17.20
2018-08-18T06:39:26.278Z,17.30
2018-08-18T06:41:55.468Z,17.30
2018-08-18T06:44:27.343Z,17.40
2018-08-18T06:46:56.132Z,17.50
2018-08-18T06:49:24.740Z,17.50
2018-08-18T06:51:53.389Z,17.60
2018-08-18T06:54:22.058Z,17.70
2018-08-18T06:56:50.589Z,17.80
2018-08-18T06:59:19.668Z,17.80
2018-08-18T07:01:48.915Z,17.90
2018-08-18T07:04:21.915Z,18.00
2018-08-18T07:06:50.957Z,18.10
2018-08-18T07:09:19.518Z,18.20
2018-08-18T07:11:48.147Z,18.30
2018-08-18T07:14:16.789Z,18.30
2018-08-18T07:16:45.351Z,18.40
2018-08-18T07:19:14.350Z,18.40
2018-08-18T07:21:42.983Z,18.50
2018-08-18T07:24:11.600Z,18.50
2018-08-18T07:26:41.704Z,18.60
2018-08-18T07:29:10.549Z,18.70
2018-08-18T07:31:39.304Z,18.80
2018-08-18T07:34:08.381Z,18.90
2018-08-18T07:36:37.259Z,19.00
2018-08-18T07:39:08.008Z,19.00
2018-08-18T07:41:37.038Z,19.10
2018-08-18T07:44:06.252Z,19.10
2018-08-18T07:46:34.921Z,19.20
2018-08-18T07:49:03.557Z,19.30
2018-08-18T07:51:32.120Z,19.30
2018-08-18T07:54:00.764Z,19.40
2018-08-18T07:56:29.565Z,19.50
2018-08-18T07:58:58.189Z,19.60
2018-08-18T08:01:26.715Z,19.60
2018-08-18T08:03:56.036Z,19.70
2018-08-18T08:06:24.548Z,19.70
2018-08-18T08:08:53.317Z,19.70
2018-08-18T08:11:22.433Z,19.80
2018-08-18T08:13:50.935Z,19.90
2018-08-18T08:16:19.508Z,20.10
2018-08-18T08:18:48.163Z,20.10
2018-08-18T08:21:16.901Z,20.10
2018-08-18T08:23:45.595Z,20.10
2018-08-18T08:26:14.552Z,20.20
2018-08-18T08:28:43.072Z,20.30
2018-08-18T08:31:11.871Z,20.40
2018-08-18T08:33:40.663Z,20.50
2018-08-18T08:36:13.160Z,20.60
2018-08-18T08:38:54.373Z,20.80
2018-08-18T08:41:25.311Z,20.90
2018-08-18T08:43:53.948Z,21.00
2018-08-18T08:46:23.284Z,21.00
2018-08-18T08:48:55.344Z,21.10
2018-08-18T08:51:23.929Z,21.20
2018-08-18T08:53:54.059Z,21.30
2018-08-18T08:56:28.745Z,21.40
2018-08-18T08:58:57.523Z,21.50
2018-08-18T09:01:26.064Z,21.50
2018-08-18T09:03:54.743Z,21.50
2018-08-18T09:06:23.323Z,21.50
2018-08-18T09:08:56.334Z,21.60
2018-08-18T09:11:25.782Z,21.60
2018-08-18T09:14:02.752Z,21.60
2018-08-18T09:16:32.707Z,21.70
2018-08-18T09:19:01.382Z,21.80
2018-08-18T09:21:38.666Z,22.00
2018-08-18T09:24:07.953Z,22.00
2018-08-18T09:26:42.189Z,22.10
2018-08-18T09:29:11.214Z,22.30
2018-08-18T09:31:40.265Z,22.30
2018-08-18T09:34:08.895Z,22.30
2018-08-18T09:36:38.240Z,22.40
2018-08-18T09:39:12.723Z,22.40
2018-08-18T09:41:41.275Z,22.40
2018-08-18T09:44:15.097Z,22.30
2018-08-18T09:46:44.806Z,22.30
2018-08-18T09:49:13.450Z,22.40
2018-08-18T09:51:42.080Z,22.60
2018-08-18T09:54:10.763Z,22.70
2018-08-18T09:56:39.620Z,22.80
2018-08-18T09:59:08.442Z,23.00
2018-08-18T10:01:37.337Z,23.30
2018-08-18T10:04:06.290Z,23.40
2018-08-18T10:06:35.642Z,23.40
2018-08-18T10:09:07.552Z,23.50
2018-08-18T10:11:36.636Z,23.60
2018-08-18T10:14:06.000Z,23.60
2018-08-18T10:16:35.073Z,23.50
2018-08-18T10:19:04.551Z,23.40
2018-08-18T10:21:33.295Z,23.50
2018-08-18T10:24:02.730Z,23.60
2018-08-18T10:26:31.435Z,23.80
2018-08-18T10:29:13.637Z,24.00
2018-08-18T10:31:47.605Z,24.10
2018-08-18T10:34:17.480Z,24.20
2018-08-18T10:36:48.576Z,24.40
2018-08-18T10:39:17.213Z,24.60
2018-08-18T10:41:57.160Z,24.70
2018-08-18T10:44:26.545Z,24.80
2018-08-18T10:47:17.038Z,24.90
2018-08-18T10:49:56.998Z,25.10
2018-08-18T10:52:37.614Z,25.30
2018-08-18T10:55:07.977Z,25.50
2018-08-18T10:57:49.096Z,25.60
2018-08-18T11:00:19.109Z,25.80
2018-08-18T11:02:52.516Z,26.00
2018-08-18T11:05:21.923Z,26.10
2018-08-18T11:07:56.801Z,26.20
2018-08-18T11:10:27.048Z,26.30
2018-08-18T11:12:55.683Z,26.30
2018-08-18T11:15:24.609Z,26.40
2018-08-18T11:17:53.538Z,26.40
2018-08-18T11:20:27.536Z,26.40
2018-08-18T11:23:06.859Z,26.50
2018-08-18T11:25:37.795Z,26.60
2018-08-18T11:28:07.241Z,26.70
2018-08-18T11:30:35.937Z,26.80
2018-08-18T11:33:05.238Z,26.90
2018-08-18T11:35:34.753Z,26.80
2018-08-18T11:38:15.620Z,26.70
2018-08-18T11:40:44.476Z,26.70
2018-08-18T11:43:16.289Z,26.70
2018-08-18T11:45:45.723Z,26.80
2018-08-18T11:48:23.944Z,26.80
2018-08-18T11:50:53.924Z,26.90
2018-08-18T11:53:22.505Z,27.00
2018-08-18T11:55:51.112Z,27.00
2018-08-18T11:58:21.937Z,27.30
2018-08-18T12:00:55.772Z,27.40
2018-08-18T12:03:28.048Z,27.60
2018-08-18T12:05:58.146Z,27.70
2018-08-18T12:08:28.206Z,28.00
2018-08-18T12:10:58.495Z,27.90
2018-08-18T12:13:32.455Z,27.80
2018-08-18T12:16:17.783Z,27.70
2018-08-18T12:18:47.977Z,27.70
2018-08-18T12:21:16.862Z,27.80
2018-08-18T12:23:47.639Z,27.80
2018-08-18T12:26:19.062Z,28.10
2018-08-18T12:28:48.972Z,28.20
2018-08-18T12:31:21.856Z,28.50
2018-08-18T12:33:51.157Z,28.60
2018-08-18T12:36:20.073Z,28.80
2018-08-18T12:38:51.634Z,29.00
2018-08-18T12:41:21.069Z,29.20
2018-08-18T12:43:51.672Z,29.20
2018-08-18T12:46:23.373Z,29.40
2018-08-18T12:48:53.924Z,29.40
2018-08-18T12:51:22.958Z,29.50
2018-08-18T12:53:54.625Z,29.50
2018-08-18T12:56:25.217Z,29.60
2018-08-18T12:58:54.271Z,29.70
2018-08-18T13:01:39.588Z,29.80
2018-08-18T13:04:10.472Z,29.80
2018-08-18T13:06:41.384Z,29.90
2018-08-18T13:09:12.050Z,29.90
2018-08-18T13:11:41.667Z,29.90
2018-08-18T13:14:10.380Z,29.90
2018-08-18T13:16:40.263Z,30.10
2018-08-18T13:19:09.160Z,30.10
2018-08-18T13:21:39.496Z,30.10
2018-08-18T13:24:08.172Z,30.00
2018-08-18T13:26:39.620Z,29.70
2018-08-18T13:29:09.733Z,29.70
2018-08-18T13:31:41.536Z,29.40
2018-08-18T13:34:13.447Z,29.40
2018-08-18T13:36:43.951Z,29.50
2018-08-18T13:39:16.498Z,29.60
2018-08-18T13:41:46.411Z,29.80
2018-08-18T13:44:28.830Z,29.90
2018-08-18T13:46:57.479Z,30.10
2018-08-18T13:49:27.097Z,30.10
2018-08-18T13:51:55.808Z,30.30
2018-08-18T13:54:27.626Z,30.40
2018-08-18T13:56:57.927Z,30.40
2018-08-18T13:59:39.560Z,30.50
2018-08-18T14:02:11.726Z,30.50
2018-08-18T14:04:44.711Z,30.60
2018-08-18T14:07:15.588Z,30.70
2018-08-18T14:09:53.243Z,30.80
2018-08-18T14:12:24.115Z,31.10
2018-08-18T14:14:54.942Z,31.20
2018-08-18T14:17:24.966Z,31.20
2018-08-18T14:19:54.955Z,31.30
2018-08-18T14:22:24.920Z,31.30
2018-08-18T14:25:06.028Z,31.30
2018-08-18T14:27:35.382Z,31.40
2018-08-18T14:30:05.493Z,31.50
2018-08-18T14:32:36.087Z,31.50
2018-08-18T14:35:07.207Z,31.50
2018-08-18T14:37:41.424Z,31.50
2018-08-18T14:40:15.680Z,31.70
2018-08-18T14:42:46.369Z,31.70
2018-08-18T14:45:17.162Z,31.90
2018-08-18T14:47:48.680Z,32.00
2018-08-18T14:50:24.281Z,32.00
2018-08-18T14:52:54.511Z,32.20
2018-08-18T14:55:24.766Z,32.20
2018-08-18T14:58:06.297Z,32.20
2018-08-18T15:00:35.916Z,32.00
2018-08-18T15:03:06.265Z,31.70
2018-08-18T15:05:36.719Z,31.80
2018-08-18T15:08:06.692Z,32.00
2018-08-18T15:10:45.205Z,32.20
2018-08-18T15:13:15.544Z,32.00
2018-08-18T15:15:46.211Z,31.90
2018-08-18T15:18:16.921Z,32.00
2018-08-18T15:20:47.712Z,32.20
2018-08-18T15:23:17.423Z,32.30
2018-08-18T15:25:46.980Z,32.50
2018-08-18T15:28:17.003Z,32.60
2018-08-18T15:30:47.967Z,32.80
2018-08-18T15:33:18.654Z,32.70
2018-08-18T15:35:47.356Z,32.80
2018-08-18T15:38:16.521Z,32.90
2018-08-18T15:40:45.235Z,32.60
2018-08-18T15:43:13.900Z,32.40
2018-08-18T15:45:58.441Z,32.10
2018-08-18T15:48:27.633Z,32.10
2018-08-18T15:50:56.230Z,32.30
2018-08-18T15:53:58.205Z,32.20
2018-08-18T15:56:27.910Z,32.30
2018-08-18T15:58:57.122Z,32.50
2018-08-18T16:01:26.944Z,32.40
2018-08-18T16:03:56.489Z,32.20
2018-08-18T16:06:25.952Z,31.70
2018-08-18T16:08:55.262Z,31.70
2018-08-18T16:11:24.069Z,31.90
2018-08-18T16:13:53.023Z,31.90
2018-08-18T16:16:21.561Z,31.90
2018-08-18T16:18:54.685Z,31.90
2018-08-18T16:21:24.292Z,32.10
2018-08-18T16:23:52.929Z,32.20
2018-08-18T16:26:21.645Z,32.30
2018-08-18T16:28:52.597Z,32.20
2018-08-18T16:31:21.673Z,32.20
2018-08-18T16:33:52.631Z,31.90
2018-08-18T16:36:21.223Z,31.90
2018-08-18T16:38:50.082Z,31.90
2018-08-18T16:41:18.625Z,31.80
2018-08-18T16:43:47.246Z,31.70
2018-08-18T16:46:29.878Z,31.60
2018-08-18T16:48:59.309Z,31.50
2018-08-18T16:51:28.077Z,31.30
2018-08-18T16:54:03.821Z,31.40
2018-08-18T16:56:32.647Z,31.50
2018-08-18T16:59:01.547Z,31.50
2018-08-18T17:01:30.516Z,31.60
2018-08-18T17:03:59.247Z,31.40
2018-08-18T17:06:28.173Z,31.10
2018-08-18T17:08:56.819Z,31.00
2018-08-18T17:11:25.386Z,30.90
2018-08-18T17:13:54.456Z,30.80
2018-08-18T17:16:23.524Z,30.60
2018-08-18T17:18:52.225Z,30.70
2018-08-18T17:21:21.323Z,30.80
2018-08-18T17:23:50.845Z,30.80
2018-08-18T17:26:20.036Z,30.80
2018-08-18T17:28:48.730Z,30.80
2018-08-18T17:31:17.347Z,30.70
2018-08-18T17:33:46.921Z,30.70
2018-08-18T17:36:16.303Z,30.80
2018-08-18T17:38:45.046Z,30.80
2018-08-18T17:41:13.737Z,30.80
2018-08-18T17:43:42.443Z,30.80
2018-08-18T17:46:11.404Z,30.80
2018-08-18T17:48:45.588Z,30.60
2018-08-18T17:51:14.812Z,30.50
2018-08-18T17:53:58.684Z,30.20
2018-08-18T17:56:27.799Z,30.10
2018-08-18T17:58:58.585Z,30.00
2018-08-18T18:01:27.429Z,29.60
2018-08-18T18:03:57.511Z,29.30
2018-08-18T18:06:28.151Z,29.00
2018-08-18T18:08:56.992Z,28.50
2018-08-18T18:11:27.064Z,28.20
2018-08-18T18:13:56.214Z,27.90
2018-08-18T18:16:27.961Z,27.70
2018-08-18T18:18:58.548Z,27.40
2018-08-18T18:21:27.178Z,27.10
2018-08-18T18:23:55.884Z,26.80
2018-08-18T18:26:24.576Z,26.50
2018-08-18T18:28:53.314Z,26.40
2018-08-18T18:31:22.552Z,26.20
2018-08-18T18:33:56.725Z,26.00
2018-08-18T18:36:25.383Z,25.90
2018-08-18T18:38:56.316Z,25.80
2018-08-18T18:41:25.263Z,25.60
2018-08-18T18:44:02.250Z,25.50
2018-08-18T18:46:31.898Z,25.50
2018-08-18T18:49:01.148Z,25.30
2018-08-18T18:51:29.819Z,25.20
2018-08-18T18:53:58.796Z,25.10
2018-08-18T18:56:28.294Z,24.90
2018-08-18T18:58:57.334Z,24.80
2018-08-18T19:01:27.096Z,24.70
2018-08-18T19:03:56.199Z,24.50
2018-08-18T19:06:25.264Z,24.40
2018-08-18T19:09:01.469Z,24.30
2018-08-18T19:11:30.575Z,24.20
2018-08-18T19:13:59.893Z,24.10
2018-08-18T19:16:28.550Z,24.00
2018-08-18T19:18:57.698Z,24.00
2018-08-18T19:21:31.540Z,23.90
2018-08-18T19:24:03.536Z,23.80
2018-08-18T19:26:45.332Z,23.70
2018-08-18T19:29:14.540Z,23.60
2018-08-18T19:31:43.430Z,23.50
2018-08-18T19:34:15.537Z,23.40
2018-08-18T19:36:56.861Z,23.40
2018-08-18T19:39:27.506Z,23.30
2018-08-18T19:42:09.923Z,23.20
2018-08-18T19:44:41.981Z,23.20
2018-08-18T19:47:11.624Z,23.10
2018-08-18T19:49:43.063Z,23.00
2018-08-18T19:52:19.216Z,23.00
2018-08-18T19:54:49.151Z,22.90
2018-08-18T19:57:25.628Z,22.90
2018-08-18T19:59:56.318Z,22.90
2018-08-18T20:02:24.934Z,22.80
2018-08-18T20:04:53.579Z,22.80
2018-08-18T20:07:22.355Z,22.80
2018-08-18T20:09:51.713Z,22.70
2018-08-18T20:12:20.296Z,22.70
2018-08-18T20:14:48.856Z,22.60
2018-08-18T20:17:17.834Z,22.50
2018-08-18T20:19:46.751Z,22.50
2018-08-18T20:22:15.776Z,22.40
2018-08-18T20:24:44.697Z,22.40
2018-08-18T20:27:13.297Z,22.30
2018-08-18T20:29:42.646Z,22.30
2018-08-18T20:32:11.236Z,22.20
2018-08-18T20:34:40.767Z,22.10
2018-08-18T20:37:09.314Z,22.10
2018-08-18T20:39:38.191Z,22.00
2018-08-18T20:42:07.543Z,22.00
2018-08-18T20:44:36.263Z,21.90
2018-08-18T20:47:06.067Z,21.90
2018-08-18T20:49:34.846Z,21.80
2018-08-18T20:52:03.850Z,21.80
2018-08-18T20:54:33.116Z,21.80
2018-08-18T20:57:01.704Z,21.70
2018-08-18T20:59:30.419Z,21.60
2018-08-18T21:01:59.122Z,21.50
2018-08-18T21:04:27.724Z,21.50
2018-08-18T21:06:56.608Z,21.50
2018-08-18T21:09:30.249Z,21.50
2018-08-18T21:11:58.955Z,21.40
2018-08-18T21:14:29.022Z,21.30
2018-08-18T21:16:58.462Z,21.30
2018-08-18T21:19:27.524Z,21.30
2018-08-18T21:21:57.149Z,21.30
2018-08-18T21:24:25.747Z,21.30
2018-08-18T21:26:54.441Z,21.20
2018-08-18T21:29:25.172Z,21.20
2018-08-18T21:31:53.870Z,21.10
2018-08-18T21:34:22.785Z,21.10
2018-08-18T21:36:51.414Z,21.10
2018-08-18T21:39:20.057Z,21.00
2018-08-18T21:41:49.311Z,21.00
2018-08-18T21:44:17.917Z,21.00
2018-08-18T21:46:46.554Z,21.00
2018-08-18T21:49:15.085Z,20.90
2018-08-18T21:51:44.483Z,20.90
2018-08-18T21:54:13.337Z,20.90
2018-08-18T21:56:43.185Z,20.80
2018-08-18T21:59:13.831Z,20.80
2018-08-18T22:01:42.655Z,20.80
2018-08-18T22:04:11.344Z,20.70
2018-08-18T22:06:40.783Z,20.70
2018-08-18T22:09:21.983Z,20.70
2018-08-18T22:11:50.869Z,20.70
2018-08-18T22:14:20.070Z,20.60
2018-08-18T22:16:54.491Z,20.60
2018-08-18T22:19:23.860Z,20.50
2018-08-18T22:21:52.555Z,20.50
2018-08-18T22:24:21.377Z,20.40
2018-08-18T22:26:50.449Z,20.40
2018-08-18T22:29:23.286Z,20.30
2018-08-18T22:31:52.410Z,20.20
2018-08-18T22:34:21.094Z,20.20
2018-08-18T22:36:49.727Z,20.20
2018-08-18T22:39:19.462Z,20.20
2018-08-18T22:41:48.320Z,20.10
2018-08-18T22:44:17.282Z,20.10
2018-08-18T22:46:45.894Z,20.00
2018-08-18T22:49:15.307Z,19.90
2018-08-18T22:51:45.342Z,19.80
2018-08-18T22:54:15.439Z,19.70
2018-08-18T22:56:49.795Z,19.70
2018-08-18T22:59:18.492Z,19.60
2018-08-18T23:01:48.622Z,19.60
2018-08-18T23:04:29.680Z,19.50
2018-08-18T23:07:00.348Z,19.50
2018-08-18T23:09:31.199Z,19.40
2018-08-18T23:12:04.579Z,19.40
2018-08-18T23:14:36.110Z,19.30
2018-08-18T23:17:08.098Z,19.20
2018-08-18T23:19:38.679Z,19.20
2018-08-18T23:22:13.371Z,19.10
2018-08-18T23:24:42.657Z,19.10
2018-08-18T23:27:12.592Z,19.00
2018-08-18T23:29:43.270Z,19.00
2018-08-18T23:32:21.968Z,19.00
2018-08-18T23:34:54.671Z,18.90
2018-08-18T23:37:24.681Z,18.90
2018-08-18T23:39:56.231Z,18.80
2018-08-18T23:42:27.657Z,18.80
2018-08-18T23:44:58.458Z,18.70
2018-08-18T23:47:29.966Z,18.70
2018-08-18T23:49:59.237Z,18.60
2018-08-18T23:52:28.039Z,18.50
2018-08-18T23:54:58.605Z,18.50
2018-08-18T23:57:28.445Z,18.40
2018-08-18T23:59:58.745Z,18.40
